Terminal Aerodrome Forecast
Issued by NWS

Home | Current Version | Previous Version | Text Only | Print | Product List | Glossary On
Versions: 1 2 3 4 5 6 7 8 9 10 11 12 13
799
FTAK31 PAJN 312336
TAFAWG
TAF
PAWG 312336Z 0100/0124 11006KT P6SM -RA FEW025 BKN035 OVC050
      TEMPO 0102/0106 VRB04KT 6SM -RA BR BKN030 OVC045
     FM011500 13010KT P6SM -RA BKN030 OVC040
      AMD LTD TO CLD VIS AND WIND 0106/0115=

USA.gov is the U.S. government's official web portal to all federal, state and local government web resources and services.